Latest Weather Observations for West Roebuck

IDW60801

Issued at 6:03 pm WST Wednesday 7 December 2016 (issued every 30 minutes, with the page automatically refreshed every 10 minutes)

About weather observations | Map of weather stations | Latest weather observations for WA | Other Formats
Station Details ID: 003096 Name: WEST ROEBUCK Lat: -17.90 Lon: 122.31 Height: 32.0 m
Data from the previous 72 hours. | See also: Recent months at West Roebuck
Date/Time
WST
Temp
°C
App
Temp
°C
Dew
Point
°C
Rel
Hum
%
Delta-T
°C
Wind Press
QNH
hPa
Press
MSL
hPa
Rain since
9am
mm
Dir  Spd
km/h
Gust
km/h
Spd
kts
Gust
kts
07/06:00pm 30.5 - - - - WSW 9 13 5 7 - - -
07/05:30pm 30.9 - - - - WSW 11 17 6 9 - - 0.2
07/05:00pm 31.2 - - - - W 9 13 5 7 - - 0.2
07/04:30pm 31.5 - - - - WSW 9 13 5 7 - - 0.2
07/04:00pm 31.3 - - - - W 11 15 6 8 - - 0.2
07/03:30pm 30.9 - - - - W 11 13 6 7 - - 0.2
07/03:00pm 30.0 - - - - WNW 15 20 8 11 - - 0.2
07/02:30pm 30.8 - - - - NW 17 28 9 15 - - 0.2
07/02:00pm 33.2 - - - - WSW 13 19 7 10 - - 0.2
07/01:30pm 36.9 - - - - WSW 15 26 8 14 - - 0.2
07/01:00pm 35.5 - - - - SW 15 24 8 13 - - 0.2
07/12:30pm 33.5 - - - - WSW 17 20 9 11 - - 0.2
07/12:00pm 31.2 - - - - W 13 20 7 11 - - 0.2
07/11:30am 32.9 - - - - WSW 20 28 11 15 - - 0.0
07/11:00am 36.1 - - - - SW 19 28 10 15 - - 0.0
07/10:30am 35.4 - - - - WSW 15 24 8 13 - - 0.0
07/10:00am 34.6 - - - - SW 17 24 9 13 - - 0.0
07/09:30am 35.8 - - - - NNW 9 15 5 8 - - 0.0
07/09:00am 35.1 - - - - NW 7 11 4 6 - - 0.0
07/08:30am 34.2 - - - - N 9 15 5 8 - - 0.0
07/08:00am 32.0 - - - - NE 9 15 5 8 - - 0.0
07/07:30am 32.5 - - - - ENE 11 17 6 9 - - 0.0
07/07:00am 31.3 - - - - ENE 6 9 3 5 - - 0.0
07/06:30am 27.5 - - - - CALM 0 0 0 0 - - 0.0
07/06:00am 26.3 - - - - N 7 7 4 4 - - 0.0
07/05:30am 25.4 - - - - CALM 0 0 0 0 - - 0.0
07/05:00am 25.4 - - - - CALM 0 0 0 0 - - 0.0
07/04:30am 25.5 - - - - CALM 0 0 0 0 - - 0.0
07/04:00am 25.6 - - - - NW 6 7 3 4 - - 0.0
07/03:30am 25.8 - - - - N 7 7 4 4 - - 0.0
07/03:00am 26.0 - - - - CALM 0 0 0 0 - - 0.0
07/02:30am 26.2 - - - - CALM 0 0 0 0 - - 0.0
07/02:00am 26.4 - - - - E 6 7 3 4 - - 0.0
07/01:30am 26.4 - - - - E 7 9 4 5 - - 0.0
07/01:00am 26.7 - - - - CALM 0 0 0 0 - - 0.0
07/12:30am 27.1 - - - - E 6 7 3 4 - - 0.0
07/12:00am 26.9 - - - - CALM 0 7 0 4 - - 0.0
 
Date/Time
WST
Temp
°C
App
Temp
°C
Dew
Point
°C
Rel
Hum
%
Delta-T
°C
Wind Press
QNH
hPa
Press
MSL
hPa
Rain since
9am
mm
Dir  Spd
km/h
Gust
km/h
Spd
kts
Gust
kts
06/11:30pm 27.2 - - - - CALM 0 0 0 0 - - 0.0
06/11:00pm 27.4 - - - - CALM 0 0 0 0 - - 0.0
06/10:30pm 27.3 - - - - CALM 0 0 0 0 - - 0.0
06/10:00pm 27.6 - - - - CALM 0 0 0 0 - - 0.0
06/09:30pm 28.0 - - - - WNW 2 7 1 4 - - 0.0
06/09:00pm 28.3 - - - - WSW 6 9 3 5 - - 0.0
06/08:30pm 28.5 - - - - CALM 0 0 0 0 - - 0.0
06/08:00pm 28.8 - - - - SW 4 7 2 4 - - 0.0
06/07:30pm 29.0 - - - - W 7 13 4 7 - - 0.0
06/07:00pm 29.1 - - - - WSW 7 13 4 7 - - 0.0
06/06:30pm 29.2 - - - - W 11 19 6 10 - - 0.0
06/06:00pm 29.5 - - - - W 13 22 7 12 - - 0.0
06/05:30pm 29.6 - - - - WNW 19 30 10 16 - - 0.0
06/05:00pm 30.1 - - - - WNW 17 22 9 12 - - 0.0
06/04:30pm 30.4 - - - - W 19 28 10 15 - - 0.0
06/04:00pm 30.6 - - - - WNW 20 28 11 15 - - 0.0
06/03:30pm 31.5 - - - - W 19 24 10 13 - - 0.0
06/03:00pm 32.0 - - - - W 15 24 8 13 - - 0.0
06/02:30pm 32.4 - - - - W 17 20 9 11 - - 0.0
06/02:00pm 33.1 - - - - WNW 17 22 9 12 - - 0.0
06/01:30pm 34.3 - - - - WSW 17 24 9 13 - - 0.0
06/01:00pm 34.4 - - - - S 11 22 6 12 - - 0.0
06/12:30pm 34.5 - - - - NNE 7 15 4 8 - - 0.0
06/12:00pm 34.6 - - - - ENE 11 17 6 9 - - 0.0
06/11:30am 34.2 - - - - NNE 9 17 5 9 - - 0.0
06/11:00am 34.5 - - - - ENE 11 19 6 10 - - 0.0
06/10:30am 34.5 - - - - ENE 11 17 6 9 - - 0.0
06/10:00am 33.2 - - - - E 9 17 5 9 - - 0.0
06/09:30am 32.4 - - - - ENE 9 17 5 9 - - 0.0
06/09:00am 32.3 - - - - ENE 11 19 6 10 - - 0.6
06/08:30am 31.0 - - - - NE 13 20 7 11 - - 0.6
06/08:00am 30.1 - - - - E 13 22 7 12 - - 0.6
06/07:30am 28.6 - - - - ENE 13 19 7 10 - - 0.6
06/07:00am 26.9 - - - - ENE 13 20 7 11 - - 0.6
06/06:30am 25.9 - - - - E 11 17 6 9 - - 0.6
06/06:00am 25.3 - - - - E 9 13 5 7 - - 0.6
06/05:30am 24.9 - - - - E 9 11 5 6 - - 0.6
06/05:00am 24.8 - - - - E 9 13 5 7 - - 0.6
06/04:30am 24.9 - - - - E 7 9 4 5 - - 0.6
06/04:00am 24.9 - - - - CALM 0 0 0 0 - - 0.6
06/03:30am 24.9 - - - - E 6 6 3 3 - - 0.6
06/03:00am 24.9 - - - - E 6 6 3 3 - - 0.6
06/02:30am 25.0 - - - - ENE 2 7 1 4 - - 0.6
06/02:00am 24.9 - - - - CALM 0 0 0 0 - - 0.6
06/01:30am 24.9 - - - - CALM 0 0 0 0 - - 0.6
06/01:00am 25.2 - - - - CALM 0 0 0 0 - - 0.6
06/12:30am 25.3 - - - - CALM 0 0 0 0 - - 0.6
06/12:00am 25.3 - - - - E 4 7 2 4 - - 0.6
 
Date/Time
WST
Temp
°C
App
Temp
°C
Dew
Point
°C
Rel
Hum
%
Delta-T
°C
Wind Press
QNH
hPa
Press
MSL
hPa
Rain since
9am
mm
Dir  Spd
km/h
Gust
km/h
Spd
kts
Gust
kts
05/11:30pm 25.3 - - - - E 6 7 3 4 - - 0.6
05/11:00pm 25.3 - - - - E 7 9 4 5 - - 0.6
05/10:30pm 25.5 - - - - E 4 9 2 5 - - 0.6
05/10:00pm 25.5 - - - - CALM 0 0 0 0 - - 0.6
05/09:30pm 25.5 - - - - CALM 0 0 0 0 - - 0.6
05/09:00pm 25.5 - - - - CALM 0 0 0 0 - - 0.6
05/08:30pm 25.5 - - - - CALM 0 0 0 0 - - 0.6
05/08:00pm 25.6 - - - - CALM 0 0 0 0 - - 0.6
05/07:30pm 25.6 - - - - E 6 7 3 4 - - 0.6
05/07:00pm 25.5 - - - - E 7 9 4 5 - - 0.6
05/06:30pm 25.6 - - - - ENE 7 11 4 6 - - 0.6
05/06:00pm 26.0 - - - - E 7 11 4 6 - - 0.6
05/05:30pm 26.0 - - - - ESE 9 11 5 6 - - 0.6
05/05:00pm 26.4 - - - - SE 7 11 4 6 - - 0.6
05/04:30pm 26.6 - - - - ESE 7 11 4 6 - - 0.6
05/04:00pm 26.9 - - - - SE 9 15 5 8 - - 0.6
05/03:30pm 26.1 - - - - SE 13 19 7 10 - - 0.6
05/03:00pm 27.6 - - - - W 9 15 5 8 - - 0.4
05/02:30pm 27.3 - - - - WNW 13 19 7 10 - - 0.4
05/02:00pm 27.6 - - - - NW 7 13 4 7 - - 0.4
05/01:30pm 29.5 - - - - WNW 17 26 9 14 - - 0.0
05/01:00pm 30.7 - - - - W 13 20 7 11 - - 0.0
05/12:30pm 30.0 - - - - W 15 24 8 13 - - 0.0
05/12:00pm 30.2 - - - - W 17 26 9 14 - - 0.0
05/11:30am 30.5 - - - - WNW 15 19 8 10 - - 0.0
05/11:00am 30.9 - - - - W 15 22 8 12 - - 0.0
05/10:30am 30.7 - - - - W 13 19 7 10 - - 0.0
05/10:00am 30.9 - - - - WNW 7 13 4 7 - - 0.0
05/09:30am 30.5 - - - - NNW 7 13 4 7 - - 0.0
05/09:00am 30.5 - - - - NNW 6 9 3 5 - - 0.0
05/08:30am 30.1 - - - - NE 7 15 4 8 - - 0.0
05/08:00am 28.7 - - - - ENE 7 13 4 7 - - 0.0
05/07:30am 27.4 - - - - ENE 9 13 5 7 - - 0.0
05/07:00am 26.8 - - - - E 9 15 5 8 - - 0.0
05/06:30am 26.1 - - - - ENE 11 17 6 9 - - 0.0
05/06:00am 25.6 - - - - E 11 17 6 9 - - 0.0
05/05:30am 24.9 - - - - E 9 17 5 9 - - 0.0
05/05:00am 24.9 - - - - E 11 15 6 8 - - 0.0
05/04:30am 25.2 - - - - ESE 7 9 4 5 - - 0.0
05/04:00am 25.4 - - - - CALM 0 0 0 0 - - 0.0
05/03:30am 25.4 - - - - ESE 6 6 3 3 - - 0.0
05/03:00am 25.5 - - - - S 6 9 3 5 - - 0.0
05/02:30am 25.4 - - - - NNW 9 13 5 7 - - 0.0
05/02:00am 25.3 - - - - NNW 9 13 5 7 - - 0.0
05/01:30am 25.2 - - - - NNW 9 13 5 7 - - 0.0
05/01:00am 25.0 - - - - N 9 13 5 7 - - 0.0
05/12:30am 25.0 - - - - N 9 11 5 6 - - 0.0
05/12:00am 24.8 - - - - NNE 13 20 7 11 - - 0.0
 
Date/Time
WST
Temp
°C
App
Temp
°C
Dew
Point
°C
Rel
Hum
%
Delta-T
°C
Wind Press
QNH
hPa
Press
MSL
hPa
Rain since
9am
mm
Dir  Spd
km/h
Gust
km/h
Spd
kts
Gust
kts
04/11:30pm 24.8 - - - - ENE 11 15 6 8 - - 0.0
04/11:00pm 24.8 - - - - ENE 13 24 7 13 - - 0.0
04/10:30pm 25.4 - - - - ENE 15 24 8 13 - - 0.0
04/10:00pm 26.0 - - - - ENE 19 28 10 15 - - 0.0
04/09:30pm 26.3 - - - - ENE 15 28 8 15 - - 0.0
04/09:00pm 26.2 - - - - ENE 19 32 10 17 - - 0.0
04/08:30pm 27.9 - - - - ENE 4 13 2 7 - - 0.0
04/08:00pm 27.8 - - - - CALM 0 6 0 3 - - 0.0
04/07:30pm 27.5 - - - - SW 6 9 3 5 - - 0.0
04/07:00pm 27.2 - - - - SW 7 11 4 6 - - 0.0
04/06:30pm 26.8 - - - - WSW 6 11 3 6 - - 0.0

Other Formats:

Comma delimited format used in spreadsheet applications
http://www.bom.gov.au/fwo/IDW60801/IDW60801.95204.axf

JavaScript Object Notation format (JSON) in row-major order
http://www.bom.gov.au/fwo/IDW60801/IDW60801.95204.json